sensor_id;sensor_type;location;lat;lon;timestamp;temperature;humidity
22629;DHT22;11481;53.694;9.910;2023-04-15T00:01:35;9.00;99.90
22629;DHT22;11481;53.694;9.910;2023-04-15T00:04:02;9.00;99.90
22629;DHT22;11481;53.694;9.910;2023-04-15T00:06:30;8.90;99.90
22629;DHT22;11481;53.694;9.910;2023-04-15T00:08:57;8.90;99.90
22629;DHT22;11481;53.694;9.910;2023-04-15T00:11:25;8.90;99.90
22629;DHT22;11481;53.694;9.910;2023-04-15T00:13:51;8.90;99.90
22629;DHT22;11481;53.694;9.910;2023-04-15T00:16:18;9.00;99.90
22629;DHT22;11481;53.694;9.910;2023-04-15T00:18:45;8.90;99.90
22629;DHT22;11481;53.694;9.910;2023-04-15T00:21:12;8.90;99.90
22629;DHT22;11481;53.694;9.910;2023-04-15T00:23:39;9.60;99.90
22629;DHT22;11481;53.694;9.910;2023-04-15T00:26:05;8.70;99.90
22629;DHT22;11481;53.694;9.910;2023-04-15T00:28:33;8.60;99.90
22629;DHT22;11481;53.694;9.910;2023-04-15T00:30:59;8.60;99.90
22629;DHT22;11481;53.694;9.910;2023-04-15T00:33:26;8.60;99.90
22629;DHT22;11481;53.694;9.910;2023-04-15T00:35:53;8.70;99.90
22629;DHT22;11481;53.694;9.910;2023-04-15T00:38:19;8.80;99.90
22629;DHT22;11481;53.694;9.910;2023-04-15T00:40:46;8.80;99.90
22629;DHT22;11481;53.694;9.910;2023-04-15T00:43:13;8.80;99.90
22629;DHT22;11481;53.694;9.910;2023-04-15T00:45:40;8.80;99.90
22629;DHT22;11481;53.694;9.910;2023-04-15T00:48:07;8.80;99.90
22629;DHT22;11481;53.694;9.910;2023-04-15T00:50:35;9.00;99.90
22629;DHT22;11481;53.694;9.910;2023-04-15T00:53:02;8.80;99.90
22629;DHT22;11481;53.694;9.910;2023-04-15T00:55:28;8.80;99.90
22629;DHT22;11481;53.694;9.910;2023-04-15T00:57:56;8.70;99.90
22629;DHT22;11481;53.694;9.910;2023-04-15T01:00:22;8.70;99.90
22629;DHT22;11481;53.694;9.910;2023-04-15T01:02:50;8.70;99.90
22629;DHT22;11481;53.694;9.910;2023-04-15T01:05:17;8.70;99.90
22629;DHT22;11481;53.694;9.910;2023-04-15T01:07:46;8.70;99.90
22629;DHT22;11481;53.694;9.910;2023-04-15T01:10:13;8.80;99.90
22629;DHT22;11481;53.694;9.910;2023-04-15T01:12:40;8.80;99.90
22629;DHT22;11481;53.694;9.910;2023-04-15T01:15:07;8.90;99.90
22629;DHT22;11481;53.694;9.910;2023-04-15T01:17:37;8.90;99.90
22629;DHT22;11481;53.694;9.910;2023-04-15T01:20:04;8.80;99.90
22629;DHT22;11481;53.694;9.910;2023-04-15T01:22:32;8.80;99.90
22629;DHT22;11481;53.694;9.910;2023-04-15T01:25:10;8.90;99.90
22629;DHT22;11481;53.694;9.910;2023-04-15T01:27:41;8.80;99.90
22629;DHT22;11481;53.694;9.910;2023-04-15T01:30:10;8.80;99.90
22629;DHT22;11481;53.694;9.910;2023-04-15T01:32:37;8.80;99.90
22629;DHT22;11481;53.694;9.910;2023-04-15T01:35:04;8.80;99.90
22629;DHT22;11481;53.694;9.910;2023-04-15T01:37:31;8.80;99.90
22629;DHT22;11481;53.694;9.910;2023-04-15T01:39:58;8.80;99.90
22629;DHT22;11481;53.694;9.910;2023-04-15T01:42:25;8.70;99.90
22629;DHT22;11481;53.694;9.910;2023-04-15T01:44:53;8.70;99.90
22629;DHT22;11481;53.694;9.910;2023-04-15T01:47:20;8.60;99.90
22629;DHT22;11481;53.694;9.910;2023-04-15T01:49:47;8.60;99.90
22629;DHT22;11481;53.694;9.910;2023-04-15T01:52:14;8.60;99.90
22629;DHT22;11481;53.694;9.910;2023-04-15T01:54:41;8.50;99.90
22629;DHT22;11481;53.694;9.910;2023-04-15T01:57:08;8.60;99.90
22629;DHT22;11481;53.694;9.910;2023-04-15T01:59:35;8.60;99.90
22629;DHT22;11481;53.694;9.910;2023-04-15T02:02:02;8.60;99.90
22629;DHT22;11481;53.694;9.910;2023-04-15T02:04:30;8.70;99.90
22629;DHT22;11481;53.694;9.910;2023-04-15T02:06:57;8.60;99.90
22629;DHT22;11481;53.694;9.910;2023-04-15T02:09:24;8.60;99.90
22629;DHT22;11481;53.694;9.910;2023-04-15T02:11:51;8.60;99.90
22629;DHT22;11481;53.694;9.910;2023-04-15T02:14:19;8.60;99.90
22629;DHT22;11481;53.694;9.910;2023-04-15T02:16:46;8.70;99.90
22629;DHT22;11481;53.694;9.910;2023-04-15T02:19:13;8.70;99.90
22629;DHT22;11481;53.694;9.910;2023-04-15T02:21:40;8.80;99.90
22629;DHT22;11481;53.694;9.910;2023-04-15T02:24:08;8.80;99.90
22629;DHT22;11481;53.694;9.910;2023-04-15T02:26:34;8.70;99.90
22629;DHT22;11481;53.694;9.910;2023-04-15T02:29:02;8.60;99.90
22629;DHT22;11481;53.694;9.910;2023-04-15T02:31:29;8.50;99.90
22629;DHT22;11481;53.694;9.910;2023-04-15T02:33:55;8.50;99.90
22629;DHT22;11481;53.694;9.910;2023-04-15T02:36:22;8.50;99.90
22629;DHT22;11481;53.694;9.910;2023-04-15T02:38:49;8.60;99.90
22629;DHT22;11481;53.694;9.910;2023-04-15T02:41:16;8.70;99.90
22629;DHT22;11481;53.694;9.910;2023-04-15T02:43:43;8.70;99.90
22629;DHT22;11481;53.694;9.910;2023-04-15T02:46:10;8.70;99.90
22629;DHT22;11481;53.694;9.910;2023-04-15T02:48:40;8.60;99.90
22629;DHT22;11481;53.694;9.910;2023-04-15T02:53:38;8.70;99.90
22629;DHT22;11481;53.694;9.910;2023-04-15T02:56:04;8.70;99.90
22629;DHT22;11481;53.694;9.910;2023-04-15T02:58:32;8.80;99.90
22629;DHT22;11481;53.694;9.910;2023-04-15T03:01:00;8.80;99.90
22629;DHT22;11481;53.694;9.910;2023-04-15T03:03:26;8.80;99.90
22629;DHT22;11481;53.694;9.910;2023-04-15T03:05:54;8.70;99.90
22629;DHT22;11481;53.694;9.910;2023-04-15T03:08:20;8.70;99.90
22629;DHT22;11481;53.694;9.910;2023-04-15T03:10:47;8.60;99.90
22629;DHT22;11481;53.694;9.910;2023-04-15T03:13:14;8.70;99.90
22629;DHT22;11481;53.694;9.910;2023-04-15T03:15:41;8.70;99.90
22629;DHT22;11481;53.694;9.910;2023-04-15T03:18:07;8.80;99.90
22629;DHT22;11481;53.694;9.910;2023-04-15T03:20:34;8.70;99.90
22629;DHT22;11481;53.694;9.910;2023-04-15T03:23:01;8.80;99.90
22629;DHT22;11481;53.694;9.910;2023-04-15T03:25:28;8.90;99.90
22629;DHT22;11481;53.694;9.910;2023-04-15T03:27:55;8.80;99.90
22629;DHT22;11481;53.694;9.910;2023-04-15T03:30:22;8.80;99.90
22629;DHT22;11481;53.694;9.910;2023-04-15T03:32:49;8.80;99.90
22629;DHT22;11481;53.694;9.910;2023-04-15T03:35:18;8.80;99.90
22629;DHT22;11481;53.694;9.910;2023-04-15T03:37:45;8.80;99.90
22629;DHT22;11481;53.694;9.910;2023-04-15T03:40:12;8.80;99.90
22629;DHT22;11481;53.694;9.910;2023-04-15T03:42:38;8.80;99.90
22629;DHT22;11481;53.694;9.910;2023-04-15T03:45:05;8.70;99.90
22629;DHT22;11481;53.694;9.910;2023-04-15T03:47:33;8.80;99.90
22629;DHT22;11481;53.694;9.910;2023-04-15T03:49:59;8.80;99.90
22629;DHT22;11481;53.694;9.910;2023-04-15T03:52:26;8.80;99.90
22629;DHT22;11481;53.694;9.910;2023-04-15T03:54:54;8.80;99.90
22629;DHT22;11481;53.694;9.910;2023-04-15T03:57:21;8.80;99.90
22629;DHT22;11481;53.694;9.910;2023-04-15T03:59:48;9.10;99.90
22629;DHT22;11481;53.694;9.910;2023-04-15T04:02:15;8.80;99.90
22629;DHT22;11481;53.694;9.910;2023-04-15T04:04:42;8.80;99.90
22629;DHT22;11481;53.694;9.910;2023-04-15T04:07:17;8.80;99.90
22629;DHT22;11481;53.694;9.910;2023-04-15T04:09:43;8.90;99.90
22629;DHT22;11481;53.694;9.910;2023-04-15T04:12:12;8.80;99.90
22629;DHT22;11481;53.694;9.910;2023-04-15T04:14:39;8.80;99.90
22629;DHT22;11481;53.694;9.910;2023-04-15T04:17:06;8.80;99.90
22629;DHT22;11481;53.694;9.910;2023-04-15T04:19:33;8.80;99.90
22629;DHT22;11481;53.694;9.910;2023-04-15T04:22:00;8.80;99.90
22629;DHT22;11481;53.694;9.910;2023-04-15T04:24:27;8.70;99.90
22629;DHT22;11481;53.694;9.910;2023-04-15T04:26:54;8.70;99.90
22629;DHT22;11481;53.694;9.910;2023-04-15T04:29:22;8.80;99.90
22629;DHT22;11481;53.694;9.910;2023-04-15T04:31:49;8.90;99.90
22629;DHT22;11481;53.694;9.910;2023-04-15T04:34:16;8.90;99.90
22629;DHT22;11481;53.694;9.910;2023-04-15T04:36:43;8.90;99.90
22629;DHT22;11481;53.694;9.910;2023-04-15T04:39:10;8.90;99.90
22629;DHT22;11481;53.694;9.910;2023-04-15T04:41:38;8.90;99.90
22629;DHT22;11481;53.694;9.910;2023-04-15T04:44:04;8.90;99.90
22629;DHT22;11481;53.694;9.910;2023-04-15T04:46:31;8.80;99.90
22629;DHT22;11481;53.694;9.910;2023-04-15T04:48:58;8.90;99.90
22629;DHT22;11481;53.694;9.910;2023-04-15T04:51:25;8.80;99.90
22629;DHT22;11481;53.694;9.910;2023-04-15T04:53:51;8.80;99.90
22629;DHT22;11481;53.694;9.910;2023-04-15T04:56:19;8.90;99.90
22629;DHT22;11481;53.694;9.910;2023-04-15T04:58:46;8.80;99.90
22629;DHT22;11481;53.694;9.910;2023-04-15T05:01:12;8.80;99.90
22629;DHT22;11481;53.694;9.910;2023-04-15T05:03:40;8.70;99.90
22629;DHT22;11481;53.694;9.910;2023-04-15T05:06:07;8.80;99.90
22629;DHT22;11481;53.694;9.910;2023-04-15T05:08:34;8.90;99.90
22629;DHT22;11481;53.694;9.910;2023-04-15T05:11:03;8.80;99.90
22629;DHT22;11481;53.694;9.910;2023-04-15T05:13:30;8.90;99.90
22629;DHT22;11481;53.694;9.910;2023-04-15T05:15:57;8.90;99.90
22629;DHT22;11481;53.694;9.910;2023-04-15T05:18:24;8.80;99.90
22629;DHT22;11481;53.694;9.910;2023-04-15T05:20:51;8.80;99.90
22629;DHT22;11481;53.694;9.910;2023-04-15T05:23:18;8.90;99.90
22629;DHT22;11481;53.694;9.910;2023-04-15T05:25:44;8.90;99.90
22629;DHT22;11481;53.694;9.910;2023-04-15T05:28:11;8.80;99.90
22629;DHT22;11481;53.694;9.910;2023-04-15T05:30:38;8.90;99.90
22629;DHT22;11481;53.694;9.910;2023-04-15T05:33:05;8.90;99.90
22629;DHT22;11481;53.694;9.910;2023-04-15T05:35:32;9.00;99.90
22629;DHT22;11481;53.694;9.910;2023-04-15T05:37:58;9.00;99.90
22629;DHT22;11481;53.694;9.910;2023-04-15T05:40:26;9.10;99.90
22629;DHT22;11481;53.694;9.910;2023-04-15T05:42:52;9.10;99.90
22629;DHT22;11481;53.694;9.910;2023-04-15T05:45:19;9.10;99.90
22629;DHT22;11481;53.694;9.910;2023-04-15T05:47:46;9.10;99.90
22629;DHT22;11481;53.694;9.910;2023-04-15T05:50:13;9.10;99.90
22629;DHT22;11481;53.694;9.910;2023-04-15T05:52:40;9.10;99.90
22629;DHT22;11481;53.694;9.910;2023-04-15T05:55:07;9.10;99.90
22629;DHT22;11481;53.694;9.910;2023-04-15T05:57:34;9.10;99.90
22629;DHT22;11481;53.694;9.910;2023-04-15T06:00:03;9.00;99.90
22629;DHT22;11481;53.694;9.910;2023-04-15T06:02:30;9.00;99.90
22629;DHT22;11481;53.694;9.910;2023-04-15T06:04:58;9.10;99.90
22629;DHT22;11481;53.694;9.910;2023-04-15T06:07:25;9.10;99.90
22629;DHT22;11481;53.694;9.910;2023-04-15T06:09:52;9.10;99.90
22629;DHT22;11481;53.694;9.910;2023-04-15T06:12:19;9.00;99.90
22629;DHT22;11481;53.694;9.910;2023-04-15T06:14:46;9.00;99.90
22629;DHT22;11481;53.694;9.910;2023-04-15T06:17:13;8.90;99.90
22629;DHT22;11481;53.694;9.910;2023-04-15T06:19:40;9.00;99.90
22629;DHT22;11481;53.694;9.910;2023-04-15T06:22:07;9.00;99.90
22629;DHT22;11481;53.694;9.910;2023-04-15T06:24:34;9.20;99.90
22629;DHT22;11481;53.694;9.910;2023-04-15T06:27:02;8.90;99.90
22629;DHT22;11481;53.694;9.910;2023-04-15T06:29:29;9.00;99.90
22629;DHT22;11481;53.694;9.910;2023-04-15T06:31:55;9.10;99.90
22629;DHT22;11481;53.694;9.910;2023-04-15T06:34:22;9.10;99.90
22629;DHT22;11481;53.694;9.910;2023-04-15T06:36:49;9.00;99.90
22629;DHT22;11481;53.694;9.910;2023-04-15T06:39:15;9.10;99.90
22629;DHT22;11481;53.694;9.910;2023-04-15T06:41:42;9.10;99.90
22629;DHT22;11481;53.694;9.910;2023-04-15T06:44:09;9.20;99.90
22629;DHT22;11481;53.694;9.910;2023-04-15T06:46:37;9.20;99.90
22629;DHT22;11481;53.694;9.910;2023-04-15T06:49:03;9.20;99.90
22629;DHT22;11481;53.694;9.910;2023-04-15T06:51:34;9.30;99.90
22629;DHT22;11481;53.694;9.910;2023-04-15T06:54:01;9.30;99.90
22629;DHT22;11481;53.694;9.910;2023-04-15T06:56:32;9.30;99.90
22629;DHT22;11481;53.694;9.910;2023-04-15T06:58:58;9.40;99.90
22629;DHT22;11481;53.694;9.910;2023-04-15T07:01:27;9.30;99.90
22629;DHT22;11481;53.694;9.910;2023-04-15T07:03:54;9.30;99.90
22629;DHT22;11481;53.694;9.910;2023-04-15T07:06:23;9.40;99.90
22629;DHT22;11481;53.694;9.910;2023-04-15T07:08:50;9.40;99.90
22629;DHT22;11481;53.694;9.910;2023-04-15T07:11:16;9.40;99.90
22629;DHT22;11481;53.694;9.910;2023-04-15T07:13:43;9.40;99.90
22629;DHT22;11481;53.694;9.910;2023-04-15T07:16:10;9.40;99.90
22629;DHT22;11481;53.694;9.910;2023-04-15T07:18:37;9.40;99.90
22629;DHT22;11481;53.694;9.910;2023-04-15T07:21:03;9.40;99.90
22629;DHT22;11481;53.694;9.910;2023-04-15T07:23:30;9.40;99.90
22629;DHT22;11481;53.694;9.910;2023-04-15T07:25:57;9.40;99.90
22629;DHT22;11481;53.694;9.910;2023-04-15T07:28:24;9.40;99.90
22629;DHT22;11481;53.694;9.910;2023-04-15T07:30:50;9.40;99.90
22629;DHT22;11481;53.694;9.910;2023-04-15T07:33:17;9.40;99.90
22629;DHT22;11481;53.694;9.910;2023-04-15T07:35:44;9.50;99.90
22629;DHT22;11481;53.694;9.910;2023-04-15T07:38:10;9.50;99.90
22629;DHT22;11481;53.694;9.910;2023-04-15T07:40:40;9.60;99.90
22629;DHT22;11481;53.694;9.910;2023-04-15T07:43:07;9.60;99.90
22629;DHT22;11481;53.694;9.910;2023-04-15T07:45:34;9.60;99.90
22629;DHT22;11481;53.694;9.910;2023-04-15T07:48:01;9.70;99.90
22629;DHT22;11481;53.694;9.910;2023-04-15T07:50:28;9.70;99.90
22629;DHT22;11481;53.694;9.910;2023-04-15T07:52:55;9.70;99.90
22629;DHT22;11481;53.694;9.910;2023-04-15T07:55:22;9.70;99.90
22629;DHT22;11481;53.694;9.910;2023-04-15T07:57:49;9.70;99.90
22629;DHT22;11481;53.694;9.910;2023-04-15T08:00:16;9.70;99.90
22629;DHT22;11481;53.694;9.910;2023-04-15T08:02:43;9.70;99.90
22629;DHT22;11481;53.694;9.910;2023-04-15T08:05:12;9.70;99.90
22629;DHT22;11481;53.694;9.910;2023-04-15T08:07:40;9.80;99.90
22629;DHT22;11481;53.694;9.910;2023-04-15T08:10:07;9.70;99.90
22629;DHT22;11481;53.694;9.910;2023-04-15T08:12:34;9.60;99.90
22629;DHT22;11481;53.694;9.910;2023-04-15T08:15:01;9.70;99.90
22629;DHT22;11481;53.694;9.910;2023-04-15T08:17:28;9.70;99.90
22629;DHT22;11481;53.694;9.910;2023-04-15T08:19:54;9.70;99.90
22629;DHT22;11481;53.694;9.910;2023-04-15T08:22:21;9.70;99.90
22629;DHT22;11481;53.694;9.910;2023-04-15T08:24:48;9.60;99.90
22629;DHT22;11481;53.694;9.910;2023-04-15T08:27:15;9.80;99.90
22629;DHT22;11481;53.694;9.910;2023-04-15T08:29:42;9.60;99.90
22629;DHT22;11481;53.694;9.910;2023-04-15T08:32:10;9.60;99.90
22629;DHT22;11481;53.694;9.910;2023-04-15T08:34:38;9.70;99.90
22629;DHT22;11481;53.694;9.910;2023-04-15T08:37:05;9.70;99.90
22629;DHT22;11481;53.694;9.910;2023-04-15T08:39:32;9.80;99.90
22629;DHT22;11481;53.694;9.910;2023-04-15T08:42:03;9.80;99.90
22629;DHT22;11481;53.694;9.910;2023-04-15T08:44:33;9.90;99.90
22629;DHT22;11481;53.694;9.910;2023-04-15T08:47:02;9.90;99.90
22629;DHT22;11481;53.694;9.910;2023-04-15T08:49:35;9.90;99.90
22629;DHT22;11481;53.694;9.910;2023-04-15T08:52:05;9.80;99.90
22629;DHT22;11481;53.694;9.910;2023-04-15T08:54:33;9.90;99.90
22629;DHT22;11481;53.694;9.910;2023-04-15T08:57:00;10.00;99.90
22629;DHT22;11481;53.694;9.910;2023-04-15T08:59:29;10.10;99.90
22629;DHT22;11481;53.694;9.910;2023-04-15T09:01:56;10.20;99.90
22629;DHT22;11481;53.694;9.910;2023-04-15T09:04:24;10.10;99.90
22629;DHT22;11481;53.694;9.910;2023-04-15T09:06:52;10.20;99.90
22629;DHT22;11481;53.694;9.910;2023-04-15T09:09:18;10.30;99.90
22629;DHT22;11481;53.694;9.910;2023-04-15T09:11:45;10.30;99.90
22629;DHT22;11481;53.694;9.910;2023-04-15T09:14:12;10.20;99.90
22629;DHT22;11481;53.694;9.910;2023-04-15T09:17:02;10.30;99.90
22629;DHT22;11481;53.694;9.910;2023-04-15T09:19:30;10.30;99.90
22629;DHT22;11481;53.694;9.910;2023-04-15T09:21:59;10.40;99.90
22629;DHT22;11481;53.694;9.910;2023-04-15T09:24:37;10.40;99.90
22629;DHT22;11481;53.694;9.910;2023-04-15T09:27:04;10.50;99.90
22629;DHT22;11481;53.694;9.910;2023-04-15T09:29:32;10.60;99.90
22629;DHT22;11481;53.694;9.910;2023-04-15T09:32:12;10.60;99.90
22629;DHT22;11481;53.694;9.910;2023-04-15T09:34:39;10.60;99.90
22629;DHT22;11481;53.694;9.910;2023-04-15T09:37:08;10.60;99.90
22629;DHT22;11481;53.694;9.910;2023-04-15T09:39:46;10.70;99.90
22629;DHT22;11481;53.694;9.910;2023-04-15T09:42:13;10.80;99.90
22629;DHT22;11481;53.694;9.910;2023-04-15T09:44:40;10.90;99.90
22629;DHT22;11481;53.694;9.910;2023-04-15T09:47:07;11.00;99.90
22629;DHT22;11481;53.694;9.910;2023-04-15T09:49:33;11.10;99.90
22629;DHT22;11481;53.694;9.910;2023-04-15T09:52:01;11.30;99.90
22629;DHT22;11481;53.694;9.910;2023-04-15T09:54:36;11.40;99.90
22629;DHT22;11481;53.694;9.910;2023-04-15T09:57:09;11.60;99.90
22629;DHT22;11481;53.694;9.910;2023-04-15T09:59:36;11.70;99.90
22629;DHT22;11481;53.694;9.910;2023-04-15T10:02:04;11.80;99.90
22629;DHT22;11481;53.694;9.910;2023-04-15T10:04:34;11.70;99.90
22629;DHT22;11481;53.694;9.910;2023-04-15T10:07:03;11.60;99.90
22629;DHT22;11481;53.694;9.910;2023-04-15T10:09:31;11.70;99.90
22629;DHT22;11481;53.694;9.910;2023-04-15T10:11:59;11.80;99.90
22629;DHT22;11481;53.694;9.910;2023-04-15T10:14:27;11.80;99.90
22629;DHT22;11481;53.694;9.910;2023-04-15T10:17:01;12.00;99.90
22629;DHT22;11481;53.694;9.910;2023-04-15T10:19:31;12.10;99.90
22629;DHT22;11481;53.694;9.910;2023-04-15T10:22:00;12.20;99.90
22629;DHT22;11481;53.694;9.910;2023-04-15T10:24:27;12.30;99.90
22629;DHT22;11481;53.694;9.910;2023-04-15T10:26:54;12.30;99.90
22629;DHT22;11481;53.694;9.910;2023-04-15T10:29:24;12.40;99.90
22629;DHT22;11481;53.694;9.910;2023-04-15T10:31:58;12.50;99.90
22629;DHT22;11481;53.694;9.910;2023-04-15T10:34:26;12.60;99.90
22629;DHT22;11481;53.694;9.910;2023-04-15T10:37:00;12.70;99.90
22629;DHT22;11481;53.694;9.910;2023-04-15T10:39:43;12.90;99.90
22629;DHT22;11481;53.694;9.910;2023-04-15T10:42:12;12.90;99.90
22629;DHT22;11481;53.694;9.910;2023-04-15T10:44:41;13.00;99.90
22629;DHT22;11481;53.694;9.910;2023-04-15T10:47:13;13.20;99.90
22629;DHT22;11481;53.694;9.910;2023-04-15T10:52:16;13.50;99.90
22629;DHT22;11481;53.694;9.910;2023-04-15T10:54:43;13.50;99.90
22629;DHT22;11481;53.694;9.910;2023-04-15T10:57:22;13.40;99.90
22629;DHT22;11481;53.694;9.910;2023-04-15T11:02:38;13.50;99.90
22629;DHT22;11481;53.694;9.910;2023-04-15T11:05:08;13.60;99.90
22629;DHT22;11481;53.694;9.910;2023-04-15T11:07:38;13.70;99.90
22629;DHT22;11481;53.694;9.910;2023-04-15T11:13:13;13.90;99.90
22629;DHT22;11481;53.694;9.910;2023-04-15T11:15:44;13.90;99.90
22629;DHT22;11481;53.694;9.910;2023-04-15T11:18:19;14.20;99.90
22629;DHT22;11481;53.694;9.910;2023-04-15T11:20:51;14.20;99.90
22629;DHT22;11481;53.694;9.910;2023-04-15T11:23:31;14.40;99.90
22629;DHT22;11481;53.694;9.910;2023-04-15T11:25:59;14.40;99.90
22629;DHT22;11481;53.694;9.910;2023-04-15T11:28:30;14.50;99.90
22629;DHT22;11481;53.694;9.910;2023-04-15T11:30:59;14.40;99.90
22629;DHT22;11481;53.694;9.910;2023-04-15T11:33:31;14.50;99.90
22629;DHT22;11481;53.694;9.910;2023-04-15T11:36:00;14.60;99.90
22629;DHT22;11481;53.694;9.910;2023-04-15T11:38:26;14.60;99.90
22629;DHT22;11481;53.694;9.910;2023-04-15T11:40:53;14.60;99.90
22629;DHT22;11481;53.694;9.910;2023-04-15T11:43:22;14.70;99.90
22629;DHT22;11481;53.694;9.910;2023-04-15T11:46:01;14.80;99.90
22629;DHT22;11481;53.694;9.910;2023-04-15T11:48:35;14.70;99.90
22629;DHT22;11481;53.694;9.910;2023-04-15T11:51:04;14.40;99.90
22629;DHT22;11481;53.694;9.910;2023-04-15T11:53:45;14.40;99.90
22629;DHT22;11481;53.694;9.910;2023-04-15T11:56:23;14.40;99.90
22629;DHT22;11481;53.694;9.910;2023-04-15T11:58:53;14.50;99.90
22629;DHT22;11481;53.694;9.910;2023-04-15T12:01:35;14.60;99.90
22629;DHT22;11481;53.694;9.910;2023-04-15T12:04:13;14.70;99.90
22629;DHT22;11481;53.694;9.910;2023-04-15T12:06:40;14.60;99.90
22629;DHT22;11481;53.694;9.910;2023-04-15T12:09:14;14.50;99.90
22629;DHT22;11481;53.694;9.910;2023-04-15T12:11:47;14.60;99.90
22629;DHT22;11481;53.694;9.910;2023-04-15T12:14:30;14.70;99.90
22629;DHT22;11481;53.694;9.910;2023-04-15T12:17:05;14.90;99.90
22629;DHT22;11481;53.694;9.910;2023-04-15T12:19:37;14.80;99.90
22629;DHT22;11481;53.694;9.910;2023-04-15T12:22:15;14.90;99.90
22629;DHT22;11481;53.694;9.910;2023-04-15T12:24:42;14.90;99.90
22629;DHT22;11481;53.694;9.910;2023-04-15T12:27:13;14.80;99.90
22629;DHT22;11481;53.694;9.910;2023-04-15T12:29:40;14.80;99.90
22629;DHT22;11481;53.694;9.910;2023-04-15T12:32:13;14.80;99.90
22629;DHT22;11481;53.694;9.910;2023-04-15T12:34:48;14.80;99.90
22629;DHT22;11481;53.694;9.910;2023-04-15T12:37:17;14.80;99.90
22629;DHT22;11481;53.694;9.910;2023-04-15T12:39:46;14.80;99.90
22629;DHT22;11481;53.694;9.910;2023-04-15T12:42:14;14.90;99.90
22629;DHT22;11481;53.694;9.910;2023-04-15T12:44:41;14.90;99.90
22629;DHT22;11481;53.694;9.910;2023-04-15T12:47:09;14.60;99.90
22629;DHT22;11481;53.694;9.910;2023-04-15T12:49:38;14.40;99.90
22629;DHT22;11481;53.694;9.910;2023-04-15T12:52:06;14.30;99.90
22629;DHT22;11481;53.694;9.910;2023-04-15T12:54:33;14.30;99.90
22629;DHT22;11481;53.694;9.910;2023-04-15T12:57:01;14.30;99.90
22629;DHT22;11481;53.694;9.910;2023-04-15T12:59:32;14.50;99.90
22629;DHT22;11481;53.694;9.910;2023-04-15T13:02:00;14.60;99.90
22629;DHT22;11481;53.694;9.910;2023-04-15T13:04:28;14.60;99.90
22629;DHT22;11481;53.694;9.910;2023-04-15T13:06:56;14.70;99.90
22629;DHT22;11481;53.694;9.910;2023-04-15T13:09:23;14.80;99.90
22629;DHT22;11481;53.694;9.910;2023-04-15T13:11:50;14.90;99.90
22629;DHT22;11481;53.694;9.910;2023-04-15T13:14:17;15.00;99.90
22629;DHT22;11481;53.694;9.910;2023-04-15T13:16:44;15.00;99.90
22629;DHT22;11481;53.694;9.910;2023-04-15T13:19:11;14.80;99.90
22629;DHT22;11481;53.694;9.910;2023-04-15T13:21:37;14.70;99.90
22629;DHT22;11481;53.694;9.910;2023-04-15T13:24:04;14.60;99.90
22629;DHT22;11481;53.694;9.910;2023-04-15T13:26:34;14.80;99.90
22629;DHT22;11481;53.694;9.910;2023-04-15T13:29:00;14.60;99.90
22629;DHT22;11481;53.694;9.910;2023-04-15T13:31:27;14.60;99.90
22629;DHT22;11481;53.694;9.910;2023-04-15T13:33:55;14.70;99.90
22629;DHT22;11481;53.694;9.910;2023-04-15T13:36:25;14.70;99.90
22629;DHT22;11481;53.694;9.910;2023-04-15T13:38:53;14.60;99.90
22629;DHT22;11481;53.694;9.910;2023-04-15T13:41:20;14.80;99.90
22629;DHT22;11481;53.694;9.910;2023-04-15T13:43:46;15.70;99.90
22629;DHT22;11481;53.694;9.910;2023-04-15T13:46:13;14.90;99.90
22629;DHT22;11481;53.694;9.910;2023-04-15T13:48:40;15.00;99.90
22629;DHT22;11481;53.694;9.910;2023-04-15T13:51:07;15.20;99.90
22629;DHT22;11481;53.694;9.910;2023-04-15T13:53:34;15.10;99.90
22629;DHT22;11481;53.694;9.910;2023-04-15T13:56:07;15.20;99.90
22629;DHT22;11481;53.694;9.910;2023-04-15T13:58:36;15.30;99.90
22629;DHT22;11481;53.694;9.910;2023-04-15T14:01:03;15.10;99.90
22629;DHT22;11481;53.694;9.910;2023-04-15T14:03:34;15.00;99.90
22629;DHT22;11481;53.694;9.910;2023-04-15T14:06:03;15.00;99.90
22629;DHT22;11481;53.694;9.910;2023-04-15T14:08:30;15.00;99.90
22629;DHT22;11481;53.694;9.910;2023-04-15T14:10:57;14.80;99.90
22629;DHT22;11481;53.694;9.910;2023-04-15T14:13:24;14.70;99.90
22629;DHT22;11481;53.694;9.910;2023-04-15T14:15:50;14.80;99.90
22629;DHT22;11481;53.694;9.910;2023-04-15T14:18:17;15.00;99.90
22629;DHT22;11481;53.694;9.910;2023-04-15T14:20:44;15.00;99.90
22629;DHT22;11481;53.694;9.910;2023-04-15T14:23:10;14.90;99.90
22629;DHT22;11481;53.694;9.910;2023-04-15T14:25:37;15.00;99.90
22629;DHT22;11481;53.694;9.910;2023-04-15T14:28:04;15.00;99.90
22629;DHT22;11481;53.694;9.910;2023-04-15T14:30:32;15.10;99.90
22629;DHT22;11481;53.694;9.910;2023-04-15T14:32:59;15.10;99.90
22629;DHT22;11481;53.694;9.910;2023-04-15T14:35:26;15.10;99.90
22629;DHT22;11481;53.694;9.910;2023-04-15T14:37:54;15.10;99.90
22629;DHT22;11481;53.694;9.910;2023-04-15T14:40:21;15.10;99.90
22629;DHT22;11481;53.694;9.910;2023-04-15T14:42:48;15.30;99.90
22629;DHT22;11481;53.694;9.910;2023-04-15T14:45:14;15.20;99.90
22629;DHT22;11481;53.694;9.910;2023-04-15T14:47:41;15.00;99.90
22629;DHT22;11481;53.694;9.910;2023-04-15T14:50:09;15.20;99.90
22629;DHT22;11481;53.694;9.910;2023-04-15T14:52:35;15.10;99.90
22629;DHT22;11481;53.694;9.910;2023-04-15T14:55:06;15.10;99.90
22629;DHT22;11481;53.694;9.910;2023-04-15T14:57:33;15.00;99.90
22629;DHT22;11481;53.694;9.910;2023-04-15T15:00:00;15.10;99.90
22629;DHT22;11481;53.694;9.910;2023-04-15T15:02:27;15.30;99.90
22629;DHT22;11481;53.694;9.910;2023-04-15T15:05:05;15.30;99.90
22629;DHT22;11481;53.694;9.910;2023-04-15T15:07:32;15.20;99.90
22629;DHT22;11481;53.694;9.910;2023-04-15T15:09:59;14.80;99.90
22629;DHT22;11481;53.694;9.910;2023-04-15T15:12:27;15.00;99.90
22629;DHT22;11481;53.694;9.910;2023-04-15T15:14:54;15.00;99.90
22629;DHT22;11481;53.694;9.910;2023-04-15T15:17:21;14.70;99.90
22629;DHT22;11481;53.694;9.910;2023-04-15T15:19:48;14.60;99.90
22629;DHT22;11481;53.694;9.910;2023-04-15T15:22:15;14.50;99.90
22629;DHT22;11481;53.694;9.910;2023-04-15T15:24:41;14.40;99.90
22629;DHT22;11481;53.694;9.910;2023-04-15T15:27:08;14.50;99.90
22629;DHT22;11481;53.694;9.910;2023-04-15T15:29:36;14.50;99.90
22629;DHT22;11481;53.694;9.910;2023-04-15T15:32:07;14.50;99.90
22629;DHT22;11481;53.694;9.910;2023-04-15T15:34:33;14.60;99.90
22629;DHT22;11481;53.694;9.910;2023-04-15T15:37:00;14.60;99.90
22629;DHT22;11481;53.694;9.910;2023-04-15T15:39:27;14.50;99.90
22629;DHT22;11481;53.694;9.910;2023-04-15T15:41:54;14.30;99.90
22629;DHT22;11481;53.694;9.910;2023-04-15T15:44:21;14.40;99.90
22629;DHT22;11481;53.694;9.910;2023-04-15T15:46:49;14.50;99.90
22629;DHT22;11481;53.694;9.910;2023-04-15T15:49:16;14.40;99.90
22629;DHT22;11481;53.694;9.910;2023-04-15T15:51:43;14.40;99.90
22629;DHT22;11481;53.694;9.910;2023-04-15T15:54:13;14.40;99.90
22629;DHT22;11481;53.694;9.910;2023-04-15T15:56:39;14.40;99.90